Time;durP1;ratioP1;P1;durP2;ratioP2;P2;SDS_P1;SDS_P2;PMS_P1;PMS_P2;Temp;Humidity;BMP_temperature;BMP_pressure;BME280_temperature;BME280_humidity;BME280_pressure;Samples;Min_cycle;Max_cycle;Signal;HPM_P1;HPM_P2
2022/07/10 00:00:55;;;;;;;2.53;0.90;;;17.30;93.50;;;;;;4181892;28;20044;-73
2022/07/10 00:02:57;;;;;;;1.88;0.95;;;17.40;93.60;;;;;;4193579;28;20066;-71
2022/07/10 00:04:58;;;;;;;1.25;1.15;;;17.40;93.50;;;;;;4181879;28;20098;-73
2022/07/10 00:07:01;;;;;;;1.67;0.90;;;17.40;93.50;;;;;;4177087;28;20094;-74
2022/07/10 00:09:03;;;;;;;2.67;0.90;;;17.30;93.60;;;;;;4177257;28;20473;-74
2022/07/10 00:11:04;;;;;;;3.58;1.42;;;17.30;93.40;;;;;;4177403;28;20029;-76
2022/07/10 00:13:05;;;;;;;3.10;1.02;;;17.30;93.50;;;;;;4176973;28;20033;-74
2022/07/10 00:15:07;;;;;;;2.60;1.10;;;17.30;93.60;;;;;;4177232;28;20098;-70
2022/07/10 00:17:08;;;;;;;1.75;1.13;;;17.20;93.60;;;;;;4176985;28;20082;-69
2022/07/10 00:19:10;;;;;;;1.15;1.02;;;17.20;93.70;;;;;;4176713;28;20049;-71
2022/07/10 00:21:11;;;;;;;4.22;1.42;;;17.10;93.70;;;;;;4177079;28;20041;-67
2022/07/10 00:23:12;;;;;;;1.75;0.80;;;17.10;93.80;;;;;;4177142;28;20044;-67
2022/07/10 00:25:14;;;;;;;2.88;1.38;;;17.00;93.80;;;;;;4176374;28;20478;-67
2022/07/10 00:27:15;;;;;;;1.15;1.05;;;17.00;93.90;;;;;;4177015;28;20563;-68
2022/07/10 00:29:16;;;;;;;2.67;1.35;;;17.00;94.00;;;;;;4176469;28;20021;-68
2022/07/10 00:31:17;;;;;;;3.03;1.17;;;16.90;94.00;;;;;;4177125;28;20029;-68
2022/07/10 00:33:18;;;;;;;2.08;1.33;;;16.90;94.10;;;;;;4186328;28;20040;-67
2022/07/10 00:35:19;;;;;;;1.58;1.20;;;16.90;94.10;;;;;;4193141;28;20036;-70
2022/07/10 00:37:21;;;;;;;2.72;1.00;;;16.90;94.20;;;;;;4192770;28;20468;-69
2022/07/10 00:39:22;;;;;;;1.95;0.90;;;16.90;94.30;;;;;;4193452;28;20493;-70
2022/07/10 00:41:23;;;;;;;2.58;0.93;;;16.90;94.30;;;;;;4192720;28;20089;-68
2022/07/10 00:43:24;;;;;;;1.33;1.00;;;16.80;94.30;;;;;;4193070;28;20064;-74
2022/07/10 00:45:26;;;;;;;2.28;1.05;;;16.80;94.30;;;;;;4192756;28;20036;-73
2022/07/10 00:47:27;;;;;;;4.53;0.98;;;16.80;94.40;;;;;;4193266;28;20079;-71
2022/07/10 00:49:28;;;;;;;1.83;0.88;;;16.80;94.50;;;;;;4191361;28;20028;-71
2022/07/10 00:51:30;;;;;;;2.17;0.98;;;16.80;94.50;;;;;;4193225;28;20086;-72
2022/07/10 00:53:32;;;;;;;3.88;1.80;;;16.70;94.60;;;;;;4192268;28;20488;-70
2022/07/10 00:55:35;;;;;;;5.00;1.98;;;16.70;94.60;;;;;;4192590;28;20544;-71
2022/07/10 00:57:38;;;;;;;5.35;2.00;;;16.70;94.70;;;;;;4193309;28;20056;-74
2022/07/10 00:59:39;;;;;;;5.05;2.13;;;16.70;94.60;;;;;;4193027;28;20522;-75
2022/07/10 01:01:40;;;;;;;5.75;1.65;;;16.60;94.70;;;;;;4193258;28;20033;-75
2022/07/10 01:03:41;;;;;;;3.97;1.02;;;16.60;94.80;;;;;;4192810;28;20803;-75
2022/07/10 01:05:42;;;;;;;2.72;1.70;;;16.60;94.70;;;;;;4179077;28;20098;-75
2022/07/10 01:07:43;;;;;;;5.05;1.10;;;16.60;94.90;;;;;;4176180;28;20123;-75
2022/07/10 01:09:45;;;;;;;2.45;1.25;;;16.50;94.90;;;;;;4176612;28;20086;-76
2022/07/10 01:11:46;;;;;;;1.42;1.20;;;16.50;95.00;;;;;;4176608;28;20071;-75
2022/07/10 01:13:47;;;;;;;3.63;1.30;;;16.40;95.10;;;;;;4176604;28;20103;-74
2022/07/10 01:15:49;;;;;;;3.17;1.40;;;16.40;95.10;;;;;;4176605;28;20037;-76
2022/07/10 01:17:53;;;;;;;3.22;1.40;;;16.40;95.20;;;;;;4176571;28;20082;-76
2022/07/10 01:19:54;;;;;;;2.80;1.17;;;16.40;95.20;;;;;;4176857;28;20041;-74
2022/07/10 01:21:55;;;;;;;2.72;1.83;;;16.40;95.30;;;;;;4176523;28;20469;-74
2022/07/10 01:23:56;;;;;;;3.63;1.88;;;16.30;95.40;;;;;;4176488;28;20025;-76
2022/07/10 01:25:58;;;;;;;4.85;2.95;;;16.30;95.60;;;;;;4176292;28;20079;-74
2022/07/10 01:27:59;;;;;;;4.38;2.58;;;16.30;95.80;;;;;;4176595;28;20025;-74
2022/07/10 01:30:00;;;;;;;3.38;2.60;;;16.20;95.90;;;;;;4176094;28;20032;-74
2022/07/10 01:32:01;;;;;;;6.40;3.17;;;16.20;96.00;;;;;;4176407;28;20463;-76
2022/07/10 01:34:07;;;;;;;12.23;4.15;;;16.10;96.10;;;;;;4175859;28;20083;-74
2022/07/10 01:36:08;;;;;;;5.28;4.05;;;16.10;96.20;;;;;;4176459;28;20025;-75
2022/07/10 01:38:09;;;;;;;7.07;2.97;;;16.00;96.40;;;;;;4191904;28;20077;-75
2022/07/10 01:40:11;;;;;;;2.50;2.20;;;16.00;96.40;;;;;;4192529;28;20427;-75
2022/07/10 01:42:12;;;;;;;3.35;2.97;;;16.00;96.60;;;;;;4160117;28;20037;-75
2022/07/10 01:44:13;;;;;;;9.00;3.63;;;15.90;96.60;;;;;;4160120;28;20362;-75
2022/07/10 01:46:16;;;;;;;3.90;2.70;;;15.90;96.70;;;;;;4159802;28;20441;-74
2022/07/10 01:48:17;;;;;;;4.35;2.83;;;15.90;96.80;;;;;;4159834;28;20021;-74
2022/07/10 01:50:18;;;;;;;3.13;2.15;;;15.90;96.70;;;;;;4159508;28;20458;-76
2022/07/10 01:52:20;;;;;;;4.63;2.00;;;15.90;96.80;;;;;;4159465;28;20871;-74
2022/07/10 01:54:21;;;;;;;5.70;1.50;;;15.90;96.80;;;;;;4164373;28;20029;-74
2022/07/10 01:56:22;;;;;;;3.20;1.40;;;15.80;96.90;;;;;;4175974;28;20475;-75
2022/07/10 01:58:23;;;;;;;2.35;1.08;;;15.80;97.00;;;;;;4176606;28;20029;-74
2022/07/10 02:00:24;;;;;;;3.15;1.20;;;15.80;97.10;;;;;;4192604;28;20036;-74
2022/07/10 02:02:26;;;;;;;1.92;0.93;;;15.70;97.20;;;;;;4193000;28;20028;-66
2022/07/10 02:04:42;;;;;;;2.17;1.05;;;15.60;97.30;;;;;;4192589;28;20117;-67
2022/07/10 02:06:44;;;;;;;3.10;1.05;;;15.60;97.50;;;;;;4192632;28;20037;-67
2022/07/10 02:08:45;;;;;;;4.45;1.23;;;15.60;97.70;;;;;;4190377;28;20032;-66
2022/07/10 02:10:46;;;;;;;1.42;1.02;;;15.50;98.00;;;;;;4193242;28;20481;-67
2022/07/10 02:12:47;;;;;;;3.05;1.08;;;15.50;98.10;;;;;;4192826;28;20036;-68
2022/07/10 02:14:49;;;;;;;3.00;0.90;;;15.50;98.20;;;;;;4195412;28;20121;-68
2022/07/10 02:16:50;;;;;;;2.88;1.10;;;15.50;98.40;;;;;;4194967;28;20435;-67
2022/07/10 02:18:51;;;;;;;1.90;1.10;;;15.50;98.50;;;;;;4193489;28;20036;-66
2022/07/10 02:20:52;;;;;;;2.85;1.10;;;15.50;98.50;;;;;;4195491;28;20101;-68
2022/07/10 02:22:53;;;;;;;2.25;0.98;;;15.50;98.60;;;;;;4195357;28;20024;-68
2022/07/10 02:24:54;;;;;;;1.23;1.13;;;15.50;98.70;;;;;;4195376;28;20082;-67
2022/07/10 02:26:56;;;;;;;1.90;1.15;;;15.60;98.80;;;;;;4195381;28;20078;-67
2022/07/10 02:28:57;;;;;;;3.22;1.35;;;15.60;98.70;;;;;;4195523;28;20062;-66
2022/07/10 02:30:58;;;;;;;1.60;1.00;;;15.60;98.70;;;;;;4195176;28;20078;-65
2022/07/10 02:33:00;;;;;;;3.00;1.17;;;15.60;98.70;;;;;;4195157;28;20102;-67
2022/07/10 02:35:01;;;;;;;2.53;1.58;;;15.70;98.70;;;;;;4193291;28;20029;-69
2022/07/10 02:37:02;;;;;;;3.78;1.67;;;15.60;98.70;;;;;;4195610;28;20029;-66
2022/07/10 02:39:04;;;;;;;2.20;0.80;;;15.60;98.70;;;;;;4194929;28;20452;-69
2022/07/10 02:41:05;;;;;;;1.00;0.90;;;15.60;98.80;;;;;;4193871;28;20029;-66
2022/07/10 02:43:06;;;;;;;1.15;0.95;;;15.60;98.90;;;;;;4194484;28;20032;-66
2022/07/10 02:45:08;;;;;;;3.80;1.00;;;15.60;98.90;;;;;;4194496;28;20098;-69
2022/07/10 02:47:09;;;;;;;2.60;1.30;;;15.60;99.00;;;;;;4194404;28;20113;-67
2022/07/10 02:49:10;;;;;;;1.70;1.02;;;15.60;99.00;;;;;;4194488;28;20539;-69
2022/07/10 02:51:11;;;;;;;1.80;1.40;;;15.50;99.20;;;;;;4194887;28;20062;-68
2022/07/10 02:53:12;;;;;;;3.15;1.05;;;15.50;99.20;;;;;;4194506;28;20475;-67
2022/07/10 02:55:14;;;;;;;1.63;1.13;;;15.50;99.30;;;;;;4194459;28;20423;-67
2022/07/10 02:57:15;;;;;;;1.60;1.08;;;15.60;99.20;;;;;;4194558;28;20060;-67
2022/07/10 02:59:16;;;;;;;3.80;1.15;;;15.80;99.00;;;;;;4194557;28;20045;-67
2022/07/10 03:01:17;;;;;;;1.00;0.93;;;16.00;98.90;;;;;;4194923;28;20078;-69
2022/07/10 03:03:19;;;;;;;1.30;0.88;;;16.30;98.60;;;;;;4194849;28;20370;-68
2022/07/10 03:05:20;;;;;;;1.58;0.95;;;16.50;98.30;;;;;;4194208;28;20040;-69
2022/07/10 03:07:22;;;;;;;1.10;1.00;;;16.70;98.00;;;;;;4194915;28;20036;-68
2022/07/10 03:09:23;;;;;;;4.88;1.38;;;17.00;97.60;;;;;;4194040;28;20086;-74
2022/07/10 03:11:24;;;;;;;1.92;1.15;;;17.30;97.30;;;;;;4195075;28;20044;-74
2022/07/10 03:13:25;;;;;;;1.77;1.10;;;17.60;96.90;;;;;;4178032;28;20041;-74
2022/07/10 03:15:26;;;;;;;1.48;0.88;;;17.90;96.50;;;;;;4177942;28;20045;-69
2022/07/10 03:17:27;;;;;;;1.35;1.10;;;18.20;96.00;;;;;;4177882;28;20075;-74
2022/07/10 03:19:28;;;;;;;1.33;0.80;;;18.40;95.60;;;;;;4176786;28;20033;-74
2022/07/10 03:21:30;;;;;;;1.40;1.00;;;18.70;95.20;;;;;;4178019;28;20041;-76
2022/07/10 03:23:32;;;;;;;1.13;0.80;;;19.00;94.90;;;;;;4177966;28;20045;-74
2022/07/10 03:25:33;;;;;;;2.47;0.93;;;19.40;94.50;;;;;;4176775;28;20055;-73
2022/07/10 03:27:34;;;;;;;1.88;1.02;;;19.70;93.90;;;;;;4177857;28;20597;-72
2022/07/10 03:29:36;;;;;;;2.50;0.80;;;19.80;93.60;;;;;;4177722;28;20420;-74
2022/07/10 03:31:37;;;;;;;1.13;1.00;;;20.10;93.30;;;;;;4177699;28;20110;-70
2022/07/10 03:33:39;;;;;;;2.17;0.93;;;20.40;92.90;;;;;;4177457;28;20036;-70
2022/07/10 03:35:40;;;;;;;2.70;1.00;;;20.50;92.60;;;;;;4177701;28;20024;-68
2022/07/10 03:37:41;;;;;;;1.23;0.77;;;20.70;92.30;;;;;;4177932;28;20045;-69
2022/07/10 03:39:42;;;;;;;2.08;0.95;;;20.70;92.10;;;;;;4177720;28;20060;-71
2022/07/10 03:41:43;;;;;;;1.45;0.82;;;20.80;92.00;;;;;;4178184;28;20419;-71
2022/07/10 03:43:44;;;;;;;0.63;0.60;;;21.10;91.70;;;;;;4178018;28;20059;-71
2022/07/10 03:45:45;;;;;;;1.67;0.90;;;21.40;91.40;;;;;;4194380;28;20129;-71
2022/07/10 03:47:46;;;;;;;1.98;0.75;;;21.90;91.00;;;;;;4193690;28;20032;-70
2022/07/10 03:49:48;;;;;;;1.80;0.80;;;22.10;90.50;;;;;;4194227;28;20463;-71
2022/07/10 03:51:49;;;;;;;1.20;0.80;;;22.40;90.20;;;;;;4193710;28;20017;-71
2022/07/10 03:53:50;;;;;;;1.63;0.82;;;22.30;89.50;;;;;;4193975;28;20047;-70
2022/07/10 03:55:51;;;;;;;1.67;0.90;;;22.10;89.70;;;;;;4193737;28;20021;-69
2022/07/10 03:58:02;;;;;;;2.28;1.10;;;22.10;89.70;;;;;;4191857;28;20073;-68
2022/07/10 04:00:04;;;;;;;3.65;1.00;;;22.30;89.30;;;;;;4160646;28;20072;-68
2022/07/10 04:02:05;;;;;;;1.20;0.85;;;22.70;88.70;;;;;;4160928;28;20489;-68
2022/07/10 04:04:06;;;;;;;1.33;0.93;;;22.80;87.70;;;;;;4159113;28;20037;-68
2022/07/10 04:06:07;;;;;;;3.70;0.85;;;23.30;87.10;;;;;;4160904;28;20458;-69
2022/07/10 04:08:09;;;;;;;5.07;0.80;;;23.50;86.20;;;;;;4160871;28;20474;-69
2022/07/10 04:10:10;;;;;;;2.17;0.70;;;23.80;85.60;;;;;;4160373;28;20321;-69
2022/07/10 04:12:12;;;;;;;0.65;0.63;;;23.70;85.20;;;;;;4168734;28;20110;-71
2022/07/10 04:14:13;;;;;;;0.60;0.50;;;23.80;85.00;;;;;;4176528;28;20094;-70
2022/07/10 04:16:14;;;;;;;2.28;0.73;;;23.90;84.50;;;;;;4181043;28;20016;-71
2022/07/10 04:18:15;;;;;;;1.95;0.82;;;23.70;84.80;;;;;;4193345;28;20025;-71
2022/07/10 04:20:17;;;;;;;0.70;0.70;;;23.50;84.60;;;;;;4193759;28;20431;-70
2022/07/10 04:22:18;;;;;;;4.00;0.88;;;23.40;84.80;;;;;;4193185;28;20473;-71
2022/07/10 04:24:19;;;;;;;2.05;0.73;;;23.60;84.40;;;;;;4193396;28;20086;-70
2022/07/10 04:26:20;;;;;;;1.40;0.70;;;23.70;84.10;;;;;;4193233;28;20074;-72
2022/07/10 04:28:22;;;;;;;1.45;0.85;;;24.20;83.80;;;;;;4193113;28;20036;-75
2022/07/10 04:30:23;;;;;;;1.67;0.60;;;24.90;82.60;;;;;;4193473;28;20465;-74
2022/07/10 04:32:24;;;;;;;1.42;0.70;;;25.40;81.40;;;;;;4193149;28;20070;-73
2022/07/10 04:34:25;;;;;;;2.30;0.77;;;25.70;80.80;;;;;;4192863;28;20102;-73
2022/07/10 04:36:26;;;;;;;3.45;0.75;;;25.90;80.20;;;;;;4193175;28;20074;-72
2022/07/10 04:38:27;;;;;;;1.23;0.98;;;26.10;79.50;;;;;;4193372;28;20028;-73
2022/07/10 04:40:29;;;;;;;2.63;0.60;;;26.10;78.80;;;;;;4193063;28;20024;-71
2022/07/10 04:42:30;;;;;;;2.25;0.70;;;25.70;78.90;;;;;;4193811;28;20082;-68
2022/07/10 04:44:31;;;;;;;2.22;0.70;;;25.10;79.30;;;;;;4192697;28;20161;-68
2022/07/10 04:46:32;;;;;;;7.57;0.73;;;24.40;80.00;;;;;;4187408;28;20440;-68
2022/07/10 04:48:33;;;;;;;2.38;1.02;;;23.50;81.10;;;;;;4176364;28;20106;-68
2022/07/10 04:50:35;;;;;;;3.08;0.77;;;23.00;82.30;;;;;;4176683;28;20500;-71
2022/07/10 04:52:36;;;;;;;1.58;0.70;;;22.90;83.00;;;;;;4175515;28;20370;-69
2022/07/10 04:54:37;;;;;;;2.50;0.80;;;22.90;83.00;;;;;;4174993;28;20033;-70
2022/07/10 04:56:38;;;;;;;1.63;0.73;;;22.80;82.70;;;;;;4176332;28;20467;-67
2022/07/10 04:58:39;;;;;;;2.80;0.75;;;22.70;82.90;;;;;;4176029;28;20416;-69
2022/07/10 05:00:40;;;;;;;1.42;0.60;;;22.40;83.40;;;;;;4175941;28;20079;-69
2022/07/10 05:02:42;;;;;;;4.43;1.08;;;21.90;83.90;;;;;;4175933;28;20013;-67
2022/07/10 05:04:43;;;;;;;1.50;0.60;;;21.40;84.90;;;;;;4174593;28;20135;-67
2022/07/10 05:06:44;;;;;;;2.40;1.10;;;21.10;85.50;;;;;;4176122;28;20090;-67
2022/07/10 05:08:45;;;;;;;1.23;0.60;;;21.10;85.80;;;;;;4176040;28;20067;-66
2022/07/10 05:10:46;;;;;;;0.90;0.60;;;21.10;86.00;;;;;;4173355;28;20452;-76
2022/07/10 05:12:47;;;;;;;3.25;0.85;;;21.10;86.20;;;;;;4176020;28;20037;-76
2022/07/10 05:14:49;;;;;;;2.03;0.65;;;20.90;86.20;;;;;;4175118;28;20087;-67
2022/07/10 05:16:50;;;;;;;1.35;0.70;;;20.80;86.70;;;;;;4175818;28;20044;-67
2022/07/10 05:18:51;;;;;;;2.10;0.80;;;20.70;86.90;;;;;;4175662;28;20428;-69
2022/07/10 05:20:52;;;;;;;3.15;0.70;;;20.80;87.00;;;;;;4175913;28;20033;-71
2022/07/10 05:22:53;;;;;;;2.10;0.73;;;20.80;86.80;;;;;;4175686;28;20029;-70
2022/07/10 05:24:54;;;;;;;1.95;0.80;;;20.90;86.60;;;;;;4176142;28;20071;-72
2022/07/10 05:26:55;;;;;;;1.27;0.90;;;21.00;86.60;;;;;;4174240;28;20029;-71
2022/07/10 05:28:56;;;;;;;1.40;0.63;;;21.20;86.40;;;;;;4175798;28;20098;-72
2022/07/10 05:30:58;;;;;;;2.38;0.50;;;21.20;86.20;;;;;;4176354;28;20091;-73
2022/07/10 05:32:59;;;;;;;2.47;0.77;;;21.30;86.40;;;;;;4176669;28;20021;-72
2022/07/10 05:35:00;;;;;;;1.98;0.73;;;21.40;86.40;;;;;;4178377;28;20110;-75
2022/07/10 05:37:02;;;;;;;1.85;0.73;;;21.50;86.30;;;;;;4175578;28;20467;-75
2022/07/10 05:39:03;;;;;;;1.02;0.63;;;21.60;85.90;;;;;;4175187;28;20055;-73
2022/07/10 05:41:04;;;;;;;2.42;0.93;;;21.60;85.80;;;;;;4175592;28;20099;-67
2022/07/10 05:43:05;;;;;;;1.10;0.80;;;21.70;85.80;;;;;;4176096;28;20082;-67
2022/07/10 05:45:07;;;;;;;1.75;0.90;;;21.60;85.80;;;;;;4172862;28;20037;-69
2022/07/10 05:47:08;;;;;;;1.30;0.95;;;21.40;86.30;;;;;;4175837;28;20542;-69
2022/07/10 05:49:09;;;;;;;3.03;1.13;;;21.30;86.60;;;;;;4178251;28;20021;-69
2022/07/10 05:51:11;;;;;;;1.90;1.08;;;21.30;86.80;;;;;;4178951;28;20563;-69
2022/07/10 05:53:12;;;;;;;2.20;0.98;;;21.40;86.80;;;;;;4178591;28;20367;-69
2022/07/10 05:55:14;;;;;;;1.25;0.95;;;21.70;86.50;;;;;;4179033;28;21404;-69
2022/07/10 05:57:15;;;;;;;1.60;1.20;;;21.90;86.20;;;;;;4178330;28;20038;-68
2022/07/10 05:59:16;;;;;;;2.65;1.17;;;22.10;86.20;;;;;;4179093;28;20041;-63
2022/07/10 06:01:17;;;;;;;3.08;1.45;;;22.20;85.70;;;;;;4177233;28;20526;-66
2022/07/10 06:03:19;;;;;;;2.35;1.10;;;22.20;85.70;;;;;;4178414;28;20025;-67
2022/07/10 06:05:20;;;;;;;3.28;0.90;;;22.10;85.80;;;;;;4178478;28;20033;-68
2022/07/10 06:07:21;;;;;;;4.13;1.10;;;22.20;85.80;;;;;;4178722;28;20083;-65
2022/07/10 06:09:22;;;;;;;2.30;1.42;;;22.30;85.70;;;;;;4178629;28;20066;-67
2022/07/10 06:11:23;;;;;;;2.38;1.40;;;22.20;85.70;;;;;;4178102;28;20041;-69
2022/07/10 06:13:25;;;;;;;1.80;1.27;;;21.90;85.40;;;;;;4178760;28;20090;-65
2022/07/10 06:15:26;;;;;;;2.67;1.10;;;21.80;85.50;;;;;;4181955;28;20078;-64
2022/07/10 06:17:27;;;;;;;1.50;1.20;;;21.70;85.60;;;;;;4178719;28;20041;-69
2022/07/10 06:19:28;;;;;;;1.40;0.93;;;21.60;85.70;;;;;;4178399;28;20067;-69
2022/07/10 06:21:29;;;;;;;2.53;1.25;;;21.50;86.00;;;;;;4178867;28;20029;-71
2022/07/10 06:23:31;;;;;;;2.35;1.40;;;21.20;86.20;;;;;;4183375;28;20419;-67
2022/07/10 06:25:33;;;;;;;1.65;1.20;;;21.10;86.60;;;;;;4195286;28;20526;-69
2022/07/10 06:27:34;;;;;;;3.50;1.40;;;21.00;87.10;;;;;;4194663;28;20106;-67
2022/07/10 06:29:36;;;;;;;5.85;1.23;;;20.90;87.30;;;;;;4193693;28;20037;-68
2022/07/10 06:31:37;;;;;;;6.47;1.30;;;20.80;87.50;;;;;;4193466;28;20082;-71
2022/07/10 06:33:39;;;;;;;6.43;2.00;;;20.70;87.70;;;;;;4182920;28;20131;-75
2022/07/10 06:35:40;;;;;;;3.95;1.50;;;20.60;88.00;;;;;;4176648;28;20094;-67
2022/07/10 06:37:42;;;;;;;2.65;1.70;;;20.50;88.30;;;;;;4177383;28;20113;-70
2022/07/10 06:39:43;;;;;;;5.05;2.03;;;20.50;88.30;;;;;;4178451;28;20119;-71
2022/07/10 06:41:44;;;;;;;2.63;1.98;;;20.50;88.50;;;;;;4178210;28;20387;-66
2022/07/10 06:43:45;;;;;;;1.85;1.60;;;20.30;88.60;;;;;;4178202;28;20554;-68
2022/07/10 06:45:47;;;;;;;3.80;1.42;;;20.30;88.90;;;;;;4177716;28;20037;-69
2022/07/10 06:48:01;;;;;;;2.88;1.70;;;20.40;89.00;;;;;;4177993;28;20044;-70
2022/07/10 06:50:06;;;;;;;2.53;1.60;;;20.40;88.90;;;;;;4179907;28;20485;-66
2022/07/10 06:52:08;;;;;;;6.25;1.75;;;20.40;89.00;;;;;;4194829;28;20082;-68
2022/07/10 06:54:09;;;;;;;4.07;1.80;;;20.50;89.00;;;;;;4190760;28;20037;-67
2022/07/10 06:56:10;;;;;;;3.90;1.50;;;20.40;89.10;;;;;;4177927;28;20130;-68
2022/07/10 06:58:11;;;;;;;3.15;1.60;;;20.40;89.20;;;;;;4177892;28;20025;-70
2022/07/10 07:00:13;;;;;;;3.40;1.50;;;20.30;89.40;;;;;;4177980;28;20045;-69
2022/07/10 07:02:14;;;;;;;4.25;1.60;;;20.20;89.70;;;;;;4177562;28;20463;-69
2022/07/10 07:04:15;;;;;;;2.97;1.50;;;20.10;89.90;;;;;;4171951;28;20098;-68
2022/07/10 07:06:16;;;;;;;3.05;1.80;;;20.00;90.10;;;;;;4161009;28;20064;-69
2022/07/10 07:08:17;;;;;;;4.20;1.92;;;20.00;90.20;;;;;;4161538;28;20025;-69
2022/07/10 07:10:19;;;;;;;7.28;2.20;;;19.90;90.40;;;;;;4189472;28;20037;-73
2022/07/10 07:12:20;;;;;;;3.40;1.90;;;19.90;90.60;;;;;;4194309;28;20036;-73
2022/07/10 07:14:21;;;;;;;2.42;1.90;;;19.80;90.90;;;;;;4193953;28;20485;-67
2022/07/10 07:16:37;;;;;;;5.32;1.80;;;19.60;91.20;;;;;;4191636;28;20561;-65
2022/07/10 07:18:47;;;;;;;4.22;2.08;;;19.50;91.50;;;;;;4177287;28;20025;-67
2022/07/10 07:23:10;;;;;;;5.57;2.72;;;19.10;92.60;;;;;;4194904;28;20044;-68
2022/07/10 07:25:11;;;;;;;3.25;2.17;;;18.90;93.30;;;;;;4193999;28;20426;-70
2022/07/10 07:27:13;;;;;;;6.82;2.92;;;18.60;93.90;;;;;;4191795;28;20549;-69
2022/07/10 07:29:15;;;;;;;4.28;2.40;;;18.50;94.80;;;;;;4170942;28;20018;-65
2022/07/10 07:31:18;;;;;;;4.32;2.33;;;18.30;95.40;;;;;;4161071;28;20087;-67
2022/07/10 07:33:19;;;;;;;4.63;3.03;;;18.20;96.60;;;;;;4160108;28;20081;-68
2022/07/10 07:35:22;;;;;;;6.18;3.55;;;17.90;97.80;;;;;;4160789;28;20122;-66
2022/07/10 07:37:23;;;;;;;5.40;4.13;;;17.80;98.20;;;;;;4190280;28;20049;-68
2022/07/10 07:39:24;;;;;;;17.77;7.57;;;17.60;99.30;;;;;;4177137;28;20127;-68
2022/07/10 07:41:26;;;;;;;8.63;5.32;;;17.60;99.90;;;;;;4175184;28;20025;-72
2022/07/10 07:43:27;;;;;;;7.88;4.50;;;17.50;99.90;;;;;;4176565;28;20055;-67
2022/07/10 07:45:28;;;;;;;6.38;3.97;;;17.50;99.90;;;;;;4178863;28;20476;-68
2022/07/10 07:47:31;;;;;;;6.32;3.13;;;17.40;99.90;;;;;;4175241;28;20049;-68
2022/07/10 07:49:32;;;;;;;10.70;3.40;;;17.30;99.90;;;;;;4175596;28;20040;-67
2022/07/10 07:51:33;;;;;;;6.97;4.43;;;17.20;99.90;;;;;;4175234;28;20075;-69
2022/07/10 07:53:34;;;;;;;6.68;3.38;;;17.20;99.90;;;;;;4175426;28;20033;-68
2022/07/10 07:55:35;;;;;;;3.30;3.00;;;17.20;99.90;;;;;;4175916;28;20037;-66
2022/07/10 07:57:37;;;;;;;5.03;3.78;;;17.30;99.90;;;;;;4175844;28;20041;-70
2022/07/10 07:59:39;;;;;;;7.43;3.35;;;17.40;99.90;;;;;;4177533;28;20037;-71
2022/07/10 08:01:40;;;;;;;7.05;3.55;;;17.50;99.90;;;;;;4172938;28;20087;-67
2022/07/10 08:03:41;;;;;;;4.75;3.42;;;17.50;99.90;;;;;;4175387;28;20029;-70
2022/07/10 08:05:43;;;;;;;4.72;2.83;;;17.50;99.90;;;;;;4175264;28;20020;-69
2022/07/10 08:07:51;;;;;;;4.55;3.25;;;17.60;99.90;;;;;;4175414;28;20116;-66
2022/07/10 08:09:52;;;;;;;6.63;2.75;;;17.50;99.90;;;;;;4176336;28;20036;-69
2022/07/10 08:11:53;;;;;;;6.55;2.85;;;17.50;99.90;;;;;;4176040;28;20041;-71
2022/07/10 08:13:54;;;;;;;6.13;3.40;;;17.60;99.90;;;;;;4175290;28;20045;-71
2022/07/10 08:15:55;;;;;;;2.92;2.60;;;17.60;99.90;;;;;;4175429;28;20086;-68
2022/07/10 08:17:58;;;;;;;4.38;3.17;;;17.70;99.90;;;;;;4174942;28;20033;-66
2022/07/10 08:19:59;;;;;;;4.70;2.95;;;17.70;99.90;;;;;;4174391;28;20051;-68
2022/07/10 08:22:00;;;;;;;3.60;2.10;;;17.70;99.90;;;;;;4173888;28;20616;-64
2022/07/10 08:24:01;;;;;;;3.25;2.40;;;17.90;99.90;;;;;;4175089;28;20029;-69
2022/07/10 08:26:02;;;;;;;2.95;2.20;;;18.00;99.90;;;;;;4175264;28;20099;-69
2022/07/10 08:28:05;;;;;;;4.07;2.38;;;18.00;99.90;;;;;;4173318;28;20091;-68
2022/07/10 08:30:11;;;;;;;3.17;2.17;;;18.00;99.90;;;;;;4174552;28;20045;-67
2022/07/10 08:32:12;;;;;;;2.95;2.33;;;18.00;99.90;;;;;;4172841;28;20041;-73
2022/07/10 08:34:13;;;;;;;15.18;12.38;;;17.90;99.90;;;;;;4176389;28;20037;-68
2022/07/10 08:36:14;;;;;;;4.57;2.45;;;17.80;99.90;;;;;;4174203;28;20067;-68
2022/07/10 08:38:15;;;;;;;3.58;2.60;;;17.80;99.90;;;;;;4174696;28;20029;-69
2022/07/10 08:40:18;;;;;;;154.65;67.15;;;17.90;99.90;;;;;;4174335;28;20514;-70
2022/07/10 08:42:21;;;;;;;2.63;2.38;;;18.10;99.90;;;;;;4174388;28;20065;-70
2022/07/10 08:44:22;;;;;;;9.48;4.07;;;18.30;99.90;;;;;;4175167;28;20032;-66
2022/07/10 08:46:23;;;;;;;5.47;3.03;;;18.30;99.90;;;;;;4174851;28;20083;-66
2022/07/10 08:48:25;;;;;;;6.47;3.45;;;18.50;99.90;;;;;;4176217;28;20033;-66
2022/07/10 08:50:28;;;;;;;6.50;4.20;;;18.50;99.90;;;;;;4174784;28;20037;-67
2022/07/10 08:52:42;;;;;;;5.75;3.03;;;18.50;99.90;;;;;;4175785;28;20033;-68
2022/07/10 08:54:44;;;;;;;3.22;2.20;;;18.60;99.90;;;;;;4172499;28;20033;-67
2022/07/10 08:56:47;;;;;;;5.88;2.58;;;18.60;99.90;;;;;;4174375;28;20578;-67
2022/07/10 08:58:51;;;;;;;2.63;2.10;;;18.80;99.90;;;;;;4174440;28;20095;-67
2022/07/10 09:00:53;;;;;;;3.88;2.03;;;19.00;99.90;;;;;;4174885;28;20025;-68
2022/07/10 09:02:55;;;;;;;4.63;2.72;;;19.10;99.90;;;;;;4174053;28;20037;-69
2022/07/10 09:04:56;;;;;;;5.00;2.65;;;19.10;99.90;;;;;;4171848;28;20037;-69
2022/07/10 09:06:57;;;;;;;7.30;3.92;;;19.10;99.90;;;;;;4174485;28;20033;-67
2022/07/10 09:09:01;;;;;;;22.70;10.65;;;19.10;99.90;;;;;;4173666;28;20098;-70
2022/07/10 09:11:18;;;;;;;6.75;2.92;;;19.00;99.90;;;;;;4175332;28;20095;-72
2022/07/10 09:13:19;;;;;;;4.78;2.30;;;19.00;99.90;;;;;;4187312;28;20117;-68
2022/07/10 09:15:23;;;;;;;4.03;2.47;;;19.00;99.90;;;;;;4184045;28;20423;-70
2022/07/10 09:17:24;;;;;;;6.15;2.00;;;18.90;99.90;;;;;;4174819;28;20036;-68
2022/07/10 09:19:27;;;;;;;5.20;2.70;;;18.90;99.90;;;;;;4175641;28;20103;-69
2022/07/10 09:21:32;;;;;;;3.85;2.30;;;18.90;99.90;;;;;;4174959;28;20045;-71
2022/07/10 09:23:34;;;;;;;4.50;1.83;;;18.90;99.90;;;;;;4177176;28;20045;-66
2022/07/10 09:25:35;;;;;;;8.25;3.63;;;19.00;99.90;;;;;;4177429;28;20029;-68
2022/07/10 09:27:51;;;;;;;11.32;6.03;;;19.00;99.90;;;;;;4177611;28;20041;-71
2022/07/10 09:29:57;;;;;;;10.43;5.03;;;19.00;99.90;;;;;;4175964;28;20515;-68
2022/07/10 09:32:00;;;;;;;6.72;3.92;;;19.10;99.90;;;;;;4177075;28;20036;-69
2022/07/10 09:34:01;;;;;;;5.63;3.58;;;19.30;99.90;;;;;;4177783;28;20923;-68
2022/07/10 09:36:10;;;;;;;6.15;3.63;;;19.60;99.90;;;;;;4177166;28;20037;-66
2022/07/10 09:38:11;;;;;;;4.22;3.55;;;19.80;99.90;;;;;;4175733;28;20029;-68
2022/07/10 09:40:12;;;;;;;6.25;3.22;;;19.90;99.90;;;;;;4178544;28;20382;-68
2022/07/10 09:42:28;;;;;;;3.67;2.63;;;20.00;99.90;;;;;;4178855;28;20032;-66
2022/07/10 09:44:29;;;;;;;4.78;2.60;;;20.10;99.90;;;;;;4177377;28;20037;-69
2022/07/10 09:46:32;;;;;;;3.85;3.35;;;20.30;99.90;;;;;;4175449;28;20041;-69
2022/07/10 09:48:33;;;;;;;4.72;2.67;;;20.60;99.90;;;;;;4176703;28;20072;-71
2022/07/10 09:50:36;;;;;;;1.73;1.63;;;20.80;99.90;;;;;;4180800;28;20045;-69
2022/07/10 09:52:38;;;;;;;3.80;2.03;;;20.80;99.90;;;;;;4183950;28;20033;-69
2022/07/10 09:54:39;;;;;;;3.97;2.15;;;20.90;99.90;;;;;;4190728;28;20541;-71
2022/07/10 09:56:44;;;;;;;12.60;2.78;;;21.00;99.70;;;;;;4194214;28;20102;-70
2022/07/10 09:58:50;;;;;;;5.90;2.67;;;21.20;99.30;;;;;;4194884;28;20514;-72
2022/07/10 10:00:52;;;;;;;3.72;1.50;;;21.40;98.90;;;;;;4195428;28;20078;-71
2022/07/10 10:02:59;;;;;;;1.60;1.50;;;21.40;98.40;;;;;;4194963;28;20100;-70
2022/07/10 10:05:00;;;;;;;4.40;2.83;;;21.50;98.20;;;;;;4195020;28;20423;-70
2022/07/10 10:07:02;;;;;;;2.72;1.95;;;21.60;98.10;;;;;;4195113;28;20077;-70
2022/07/10 10:09:12;;;;;;;4.85;2.55;;;21.70;97.70;;;;;;4194870;28;20098;-71
2022/07/10 10:11:22;;;;;;;4.28;2.42;;;21.70;97.10;;;;;;4194550;28;20415;-69
2022/07/10 10:13:30;;;;;;;12.02;3.72;;;21.80;97.10;;;;;;4195232;28;20040;-70
2022/07/10 10:15:31;;;;;;;17.33;2.90;;;21.80;96.90;;;;;;4193288;28;20041;-69
2022/07/10 10:17:35;;;;;;;2.30;1.30;;;21.80;96.80;;;;;;4194852;28;20033;-70
2022/07/10 10:21:58;;;;;;;2.10;1.33;;;21.70;95.40;;;;;;4194794;28;20040;-72
2022/07/10 10:24:01;;;;;;;3.70;0.90;;;21.80;94.80;;;;;;4194896;28;20485;-70
2022/07/10 10:26:02;;;;;;;1.92;1.10;;;21.60;93.90;;;;;;4194263;28;20025;-71
2022/07/10 10:28:07;;;;;;;2.28;0.93;;;21.40;93.90;;;;;;4194628;28;20123;-70
2022/07/10 10:30:09;;;;;;;2.15;1.10;;;21.50;93.90;;;;;;4193964;28;20074;-69
2022/07/10 10:32:11;;;;;;;1.50;0.80;;;21.50;93.90;;;;;;4194355;28;20036;-70
2022/07/10 10:34:12;;;;;;;2.35;0.80;;;21.60;93.40;;;;;;4193574;28;20086;-71
2022/07/10 10:36:34;;;;;;;1.23;0.70;;;21.70;92.80;;;;;;4194569;28;20037;-70
2022/07/10 10:38:55;;;;;;;1.95;0.80;;;21.90;92.70;;;;;;4193972;28;21413;-70